createdAt,value
2018-10-07T00:00:29.414Z,95197.00
2018-10-07T00:02:59.879Z,95197.00
2018-10-07T00:05:30.474Z,95194.00
2018-10-07T00:08:00.911Z,95194.00
2018-10-07T00:10:31.455Z,95198.00
2018-10-07T00:13:01.904Z,95195.00
2018-10-07T00:15:32.386Z,95207.00
2018-10-07T00:18:05.512Z,95204.00
2018-10-07T00:20:43.266Z,95197.00
2018-10-07T00:23:13.697Z,95203.00
2018-10-07T00:25:44.018Z,95197.00
2018-10-07T00:28:14.313Z,95195.00
2018-10-07T00:30:44.787Z,95187.00
2018-10-07T00:33:15.338Z,95210.00
2018-10-07T00:35:45.659Z,95194.00
2018-10-07T00:38:16.016Z,95190.00
2018-10-07T00:40:46.371Z,95198.00
2018-10-07T00:43:17.038Z,95204.00
2018-10-07T00:45:47.497Z,95210.00
2018-10-07T00:48:17.939Z,95205.00
2018-10-07T00:50:48.320Z,95192.00
2018-10-07T00:53:19.138Z,95208.00
2018-10-07T00:55:50.050Z,95196.00
2018-10-07T00:58:20.372Z,95193.00
2018-10-07T01:00:50.852Z,95193.00
2018-10-07T01:03:21.142Z,95201.00
2018-10-07T01:05:51.406Z,95191.00
2018-10-07T01:08:21.767Z,95196.00
2018-10-07T01:10:52.061Z,95191.00
2018-10-07T01:13:22.434Z,95183.00
2018-10-07T01:15:52.685Z,95191.00
2018-10-07T01:18:23.106Z,95186.00
2018-10-07T01:20:53.365Z,95190.00
2018-10-07T01:23:23.651Z,95188.00
2018-10-07T01:25:53.946Z,95205.00
2018-10-07T01:28:24.274Z,95196.00
2018-10-07T01:30:54.583Z,95207.00
2018-10-07T01:33:25.055Z,95203.00
2018-10-07T01:35:55.333Z,95198.00
2018-10-07T01:38:25.650Z,95196.00
2018-10-07T01:40:56.188Z,95197.00
2018-10-07T01:43:26.512Z,95190.00
2018-10-07T01:45:56.801Z,95196.00
2018-10-07T01:48:27.130Z,95184.00
2018-10-07T01:50:57.465Z,95205.00
2018-10-07T01:53:27.870Z,95197.00
2018-10-07T01:55:58.136Z,95203.00
2018-10-07T01:58:28.451Z,95210.00
2018-10-07T02:00:58.739Z,95213.00
2018-10-07T02:03:29.062Z,95207.00
2018-10-07T02:05:59.339Z,95217.00
2018-10-07T02:08:29.610Z,95210.00
2018-10-07T02:10:59.899Z,95208.00
2018-10-07T02:13:30.194Z,95205.00
2018-10-07T02:16:00.483Z,95205.00
2018-10-07T02:18:30.791Z,95203.00
2018-10-07T02:21:01.075Z,95203.00
2018-10-07T02:23:31.413Z,95205.00
2018-10-07T02:26:01.687Z,95204.00
2018-10-07T02:28:31.989Z,95205.00
2018-10-07T02:31:02.307Z,95209.00
2018-10-07T02:33:32.626Z,95212.00
2018-10-07T02:36:02.958Z,95211.00
2018-10-07T02:38:33.268Z,95208.00
2018-10-07T02:41:03.568Z,95207.00
2018-10-07T02:43:34.054Z,95208.00
2018-10-07T02:46:04.387Z,95215.00
2018-10-07T02:48:34.865Z,95219.00
2018-10-07T02:51:05.171Z,95215.00
2018-10-07T02:53:35.966Z,95212.00
2018-10-07T02:56:06.290Z,95216.00
2018-10-07T02:58:36.918Z,95221.00
2018-10-07T03:01:07.374Z,95221.00
2018-10-07T03:03:37.662Z,95221.00
2018-10-07T03:06:07.992Z,95235.00
2018-10-07T03:08:38.288Z,95230.00
2018-10-07T03:11:08.574Z,95226.00
2018-10-07T03:13:38.890Z,95230.00
2018-10-07T03:16:09.155Z,95224.00
2018-10-07T03:18:39.483Z,95235.00
2018-10-07T03:21:09.789Z,95235.00
2018-10-07T03:23:40.112Z,95246.00
2018-10-07T03:26:10.430Z,95241.00
2018-10-07T03:28:40.886Z,95235.00
2018-10-07T03:31:11.732Z,95238.00
2018-10-07T03:33:42.066Z,95241.00
2018-10-07T03:36:12.842Z,95233.00
2018-10-07T03:38:43.151Z,95242.00
2018-10-07T03:41:13.555Z,95246.00
2018-10-07T03:43:43.830Z,95247.00
2018-10-07T03:46:14.170Z,95240.00
2018-10-07T03:48:44.462Z,95244.00
2018-10-07T03:51:14.737Z,95246.00
2018-10-07T03:53:45.004Z,95247.00
2018-10-07T03:56:15.303Z,95252.00
2018-10-07T03:58:45.572Z,95255.00
2018-10-07T04:01:16.218Z,95252.00
2018-10-07T04:03:46.496Z,95255.00
2018-10-07T04:06:16.818Z,95257.00
2018-10-07T04:08:47.097Z,95256.00
2018-10-07T04:11:17.362Z,95264.00
2018-10-07T04:13:47.691Z,95262.00
2018-10-07T04:16:17.979Z,95258.00
2018-10-07T04:18:48.650Z,95253.00
2018-10-07T04:21:18.903Z,95256.00
2018-10-07T04:23:49.346Z,95253.00
2018-10-07T04:26:19.622Z,95253.00
2018-10-07T04:28:50.300Z,95259.00
2018-10-07T04:31:20.851Z,95259.00
2018-10-07T04:33:51.175Z,95261.00
2018-10-07T04:36:22.235Z,95266.00
2018-10-07T04:38:52.673Z,95266.00
2018-10-07T04:41:22.974Z,95264.00
2018-10-07T04:43:53.303Z,95271.00
2018-10-07T04:46:23.951Z,95269.00
2018-10-07T04:48:54.365Z,95269.00
2018-10-07T04:51:24.720Z,95272.00
2018-10-07T04:53:55.066Z,95270.00
2018-10-07T04:56:25.755Z,95273.00
2018-10-07T04:58:56.106Z,95274.00
2018-10-07T05:01:26.405Z,95271.00
2018-10-07T05:03:56.995Z,95281.00
2018-10-07T05:06:33.287Z,95281.00
2018-10-07T05:09:05.883Z,95279.00
2018-10-07T05:11:36.615Z,95280.00
2018-10-07T05:14:08.903Z,95281.00
2018-10-07T05:16:44.483Z,95285.00
2018-10-07T05:19:14.786Z,95289.00
2018-10-07T05:21:45.182Z,95294.00
2018-10-07T05:24:15.468Z,95296.00
2018-10-07T05:26:45.844Z,95305.00
2018-10-07T05:29:16.133Z,95308.00
2018-10-07T05:31:46.433Z,95308.00
2018-10-07T05:34:16.723Z,95306.00
2018-10-07T05:36:47.022Z,95305.00
2018-10-07T05:39:17.405Z,95303.00
2018-10-07T05:41:47.710Z,95311.00
2018-10-07T05:44:18.313Z,95311.00
2018-10-07T05:46:48.641Z,95326.00
2018-10-07T05:49:18.986Z,95317.00
2018-10-07T05:51:49.629Z,95328.00
2018-10-07T05:54:20.095Z,95330.00
2018-10-07T05:56:50.389Z,95331.00
2018-10-07T05:59:21.220Z,95334.00
2018-10-07T06:01:51.702Z,95339.00
2018-10-07T06:04:40.306Z,95352.00
2018-10-07T06:07:10.690Z,95346.00
2018-10-07T06:09:41.372Z,95354.00
2018-10-07T06:12:11.689Z,95349.00
2018-10-07T06:14:59.001Z,95345.00
2018-10-07T06:17:29.282Z,95353.00
2018-10-07T06:19:59.608Z,95359.00
2018-10-07T06:22:30.219Z,95357.00
2018-10-07T06:25:00.898Z,95359.00
2018-10-07T06:27:44.139Z,95366.00
2018-10-07T06:30:18.099Z,95367.00
2018-10-07T06:32:48.622Z,95379.00
2018-10-07T06:35:18.991Z,95368.00
2018-10-07T06:37:49.413Z,95365.00
2018-10-07T06:40:19.744Z,95372.00
2018-10-07T06:42:50.090Z,95373.00
2018-10-07T06:45:20.512Z,95384.00
2018-10-07T06:47:50.864Z,95393.00
2018-10-07T06:50:21.197Z,95390.00
2018-10-07T06:52:51.695Z,95383.00
2018-10-07T06:55:22.051Z,95385.00
2018-10-07T06:57:52.402Z,95389.00
2018-10-07T07:00:22.811Z,95398.00
2018-10-07T07:02:53.078Z,95402.00
2018-10-07T07:05:23.434Z,95409.00
2018-10-07T07:07:53.833Z,95405.00
2018-10-07T07:10:24.379Z,95405.00
2018-10-07T07:12:54.824Z,95403.00
2018-10-07T07:15:25.328Z,95405.00
2018-10-07T07:17:55.730Z,95401.00
2018-10-07T07:20:26.139Z,95405.00
2018-10-07T07:22:56.598Z,95403.00
2018-10-07T07:25:27.186Z,95412.00
2018-10-07T07:27:57.811Z,95415.00
2018-10-07T07:30:28.286Z,95413.00
2018-10-07T07:32:58.776Z,95421.00
2018-10-07T07:35:29.122Z,95426.00
2018-10-07T07:37:59.543Z,95432.00
2018-10-07T07:40:29.942Z,95434.00
2018-10-07T07:43:00.555Z,95432.00
2018-10-07T07:45:31.167Z,95441.00
2018-10-07T07:48:01.495Z,95439.00
2018-10-07T07:50:32.486Z,95446.00
2018-10-07T07:53:03.453Z,95443.00
2018-10-07T07:55:33.797Z,95458.00
2018-10-07T07:58:04.214Z,95442.00
2018-10-07T08:00:34.901Z,95445.00
2018-10-07T08:03:05.499Z,95448.00
2018-10-07T08:05:36.382Z,95460.00
2018-10-07T08:08:09.126Z,95468.00
2018-10-07T08:10:39.570Z,95468.00
2018-10-07T08:13:10.043Z,95469.00
2018-10-07T08:15:40.748Z,95475.00
2018-10-07T08:18:11.051Z,95477.00
2018-10-07T08:20:41.343Z,95483.00
2018-10-07T08:23:11.669Z,95480.00
2018-10-07T08:25:41.970Z,95484.00
2018-10-07T08:28:12.307Z,95482.00
2018-10-07T08:30:42.715Z,95491.00
2018-10-07T08:33:13.083Z,95494.00
2018-10-07T08:35:43.386Z,95490.00
2018-10-07T08:38:13.650Z,95492.00
2018-10-07T08:40:44.096Z,95495.00
2018-10-07T08:43:14.373Z,95502.00
2018-10-07T08:45:44.992Z,95506.00
2018-10-07T08:48:15.239Z,95501.00
2018-10-07T08:50:45.647Z,95510.00
2018-10-07T08:53:16.055Z,95519.00
2018-10-07T08:55:46.355Z,95509.00
2018-10-07T08:58:16.659Z,95515.00
2018-10-07T09:00:46.962Z,95515.00
2018-10-07T09:03:17.213Z,95517.00
2018-10-07T09:05:47.500Z,95515.00
2018-10-07T09:08:17.904Z,95521.00
2018-10-07T09:10:48.309Z,95506.00
2018-10-07T09:13:18.622Z,95509.00
2018-10-07T09:15:48.935Z,95517.00
2018-10-07T09:18:19.441Z,95518.00
2018-10-07T09:20:50.101Z,95525.00
2018-10-07T09:23:21.154Z,95522.00
2018-10-07T09:25:51.437Z,95534.00
2018-10-07T09:28:22.579Z,95529.00
2018-10-07T09:30:53.126Z,95534.00
2018-10-07T09:33:23.510Z,95540.00
2018-10-07T09:35:55.045Z,95539.00
2018-10-07T09:38:25.369Z,95546.00
2018-10-07T09:40:55.786Z,95546.00
2018-10-07T09:43:26.044Z,95543.00
2018-10-07T09:45:56.530Z,95543.00
2018-10-07T09:48:26.868Z,95550.00
2018-10-07T09:50:57.212Z,95556.00
2018-10-07T09:53:27.480Z,95546.00
2018-10-07T09:55:57.759Z,95542.00
2018-10-07T09:58:28.015Z,95546.00
2018-10-07T10:00:58.330Z,95543.00
2018-10-07T10:03:28.731Z,95537.00
2018-10-07T10:05:59.466Z,95564.00
2018-10-07T10:08:30.176Z,95555.00
2018-10-07T10:11:00.876Z,95559.00
2018-10-07T10:13:31.136Z,95565.00
2018-10-07T10:16:01.510Z,95569.00
2018-10-07T10:18:47.572Z,95576.00
2018-10-07T10:21:33.922Z,95577.00
2018-10-07T10:24:43.916Z,95585.00
2018-10-07T10:27:55.326Z,95583.00
2018-10-07T10:32:42.665Z,95587.00
2018-10-07T10:35:31.636Z,95588.00
2018-10-07T10:38:32.557Z,95597.00
2018-10-07T10:41:14.306Z,95590.00
2018-10-07T10:44:00.242Z,95597.00
2018-10-07T10:47:01.662Z,95594.00
2018-10-07T10:50:03.436Z,95601.00
2018-10-07T10:52:48.159Z,95604.00
2018-10-07T10:55:31.183Z,95602.00
2018-10-07T10:58:07.970Z,95605.00
2018-10-07T11:00:51.991Z,95605.00
2018-10-07T11:04:05.243Z,95606.00
2018-10-07T11:06:49.636Z,95602.00
2018-10-07T11:09:37.091Z,95596.00
2018-10-07T11:12:15.494Z,95602.00
2018-10-07T11:14:56.659Z,95602.00
2018-10-07T11:18:48.679Z,95600.00
2018-10-07T11:23:44.817Z,95606.00
2018-10-07T11:26:28.509Z,95605.00
2018-10-07T11:30:14.501Z,95604.00
2018-10-07T11:35:08.897Z,95603.00
2018-10-07T11:37:48.659Z,95598.00
2018-10-07T11:40:40.711Z,95596.00
2018-10-07T11:43:20.929Z,95592.00
2018-10-07T11:46:01.306Z,95587.00
2018-10-07T11:48:53.298Z,95577.00
2018-10-07T11:53:35.902Z,95576.00
2018-10-07T11:56:06.268Z,95576.00
2018-10-07T11:58:36.568Z,95564.00
2018-10-07T12:01:06.946Z,95569.00
2018-10-07T12:03:37.346Z,95563.00
2018-10-07T12:06:07.755Z,95560.00
2018-10-07T12:08:38.309Z,95572.00
2018-10-07T12:11:08.952Z,95566.00
2018-10-07T12:13:39.334Z,95575.00
2018-10-07T12:16:09.716Z,95579.00
2018-10-07T12:18:39.979Z,95580.00
2018-10-07T12:21:10.468Z,95584.00
2018-10-07T12:23:40.723Z,95585.00
2018-10-07T12:26:11.361Z,95588.00
2018-10-07T12:28:45.480Z,95588.00
2018-10-07T12:31:15.743Z,95591.00
2018-10-07T12:33:46.040Z,95594.00
2018-10-07T12:36:18.783Z,95592.00
2018-10-07T12:38:50.308Z,95603.00
2018-10-07T12:41:20.616Z,95605.00
2018-10-07T12:43:51.942Z,95609.00
2018-10-07T12:46:23.591Z,95619.00
2018-10-07T12:48:55.182Z,95613.00
2018-10-07T12:51:26.523Z,95611.00
2018-10-07T12:53:56.975Z,95619.00
2018-10-07T12:56:27.790Z,95622.00
2018-10-07T12:58:58.735Z,95614.00
2018-10-07T13:01:29.773Z,95613.00
2018-10-07T13:04:00.762Z,95621.00
2018-10-07T13:06:31.065Z,95626.00
2018-10-07T13:09:01.388Z,95621.00
2018-10-07T13:11:31.656Z,95626.00
2018-10-07T13:14:01.963Z,95623.00
2018-10-07T13:16:32.237Z,95627.00
2018-10-07T13:19:02.608Z,95630.00
2018-10-07T13:21:33.563Z,95634.00
2018-10-07T13:24:04.188Z,95631.00
2018-10-07T13:26:34.470Z,95633.00
2018-10-07T13:29:05.103Z,95639.00
2018-10-07T13:31:35.429Z,95643.00
2018-10-07T13:34:05.801Z,95636.00
2018-10-07T13:36:37.327Z,95637.00
2018-10-07T13:39:10.753Z,95636.00
2018-10-07T13:41:41.591Z,95630.00
2018-10-07T13:44:14.401Z,95628.00
2018-10-07T13:46:44.856Z,95633.00
2018-10-07T13:49:15.162Z,95630.00
2018-10-07T13:51:45.456Z,95631.00
2018-10-07T13:54:15.790Z,95623.00
2018-10-07T13:56:46.076Z,95628.00
2018-10-07T13:59:16.531Z,95632.00
2018-10-07T14:01:46.894Z,95630.00
2018-10-07T14:04:17.210Z,95625.00
2018-10-07T14:06:47.570Z,95630.00
2018-10-07T14:09:24.091Z,95630.00
2018-10-07T14:14:46.975Z,95631.00
2018-10-07T14:17:18.210Z,95643.00
2018-10-07T14:19:48.722Z,95636.00
2018-10-07T14:22:20.889Z,95641.00
2018-10-07T14:24:51.631Z,95636.00
2018-10-07T14:27:22.081Z,95641.00
2018-10-07T14:29:53.440Z,95630.00
2018-10-07T14:32:25.282Z,95634.00
2018-10-07T14:34:55.962Z,95632.00
2018-10-07T14:37:26.365Z,95632.00
2018-10-07T14:39:56.975Z,95631.00
2018-10-07T14:42:27.250Z,95654.00
2018-10-07T14:44:57.678Z,95640.00
2018-10-07T14:47:28.088Z,95641.00
2018-10-07T14:49:58.446Z,95641.00
2018-10-07T14:52:28.825Z,95655.00
2018-10-07T14:54:59.317Z,95711.00
2018-10-07T14:57:29.595Z,95664.00
2018-10-07T15:00:01.191Z,95665.00
2018-10-07T15:02:33.430Z,95675.00
2018-10-07T15:05:05.362Z,95678.00
2018-10-07T15:07:35.719Z,95682.00
2018-10-07T15:10:06.760Z,95684.00
2018-10-07T15:12:37.186Z,95687.00
2018-10-07T15:15:07.731Z,95696.00
2018-10-07T15:17:38.090Z,95704.00
2018-10-07T15:20:08.445Z,95717.00
2018-10-07T15:22:38.750Z,95706.00
2018-10-07T15:25:09.079Z,95715.00
2018-10-07T15:27:39.501Z,95716.00
2018-10-07T15:30:10.228Z,95731.00
2018-10-07T15:32:40.692Z,95724.00
2018-10-07T15:35:11.059Z,95733.00
2018-10-07T15:37:42.277Z,95739.00
2018-10-07T15:40:14.728Z,95736.00
2018-10-07T15:42:45.548Z,95733.00
2018-10-07T15:45:15.902Z,95734.00
2018-10-07T15:47:46.456Z,95723.00
2018-10-07T15:50:16.739Z,95721.00
2018-10-07T15:52:46.985Z,95722.00
2018-10-07T15:55:18.508Z,95722.00
2018-10-07T15:57:50.411Z,95719.00
2018-10-07T16:00:23.963Z,95715.00
2018-10-07T16:02:55.483Z,95721.00
2018-10-07T16:05:25.974Z,95723.00
2018-10-07T16:07:56.278Z,95726.00
2018-10-07T16:10:26.569Z,95719.00
2018-10-07T16:12:56.899Z,95720.00
2018-10-07T16:15:27.235Z,95721.00
2018-10-07T16:17:59.359Z,95724.00
2018-10-07T16:20:30.732Z,95722.00
2018-10-07T16:23:01.054Z,95728.00
2018-10-07T16:25:31.400Z,95733.00
2018-10-07T16:28:01.681Z,95733.00
2018-10-07T16:30:31.985Z,95734.00
2018-10-07T16:33:02.234Z,95742.00
2018-10-07T16:35:32.555Z,95744.00
2018-10-07T16:38:02.888Z,95737.00
2018-10-07T16:40:33.262Z,95742.00
2018-10-07T16:43:03.618Z,95741.00
2018-10-07T16:45:34.156Z,95741.00
2018-10-07T16:48:04.386Z,95739.00
2018-10-07T16:50:35.119Z,95744.00
2018-10-07T16:53:06.412Z,95745.00
2018-10-07T16:55:36.774Z,95749.00
2018-10-07T16:58:07.602Z,95748.00
2018-10-07T17:00:37.974Z,95750.00
2018-10-07T17:03:08.231Z,95755.00
2018-10-07T17:05:38.529Z,95758.00
2018-10-07T17:08:08.897Z,95768.00
2018-10-07T17:10:39.350Z,95776.00
2018-10-07T17:13:09.700Z,95774.00
2018-10-07T17:15:40.082Z,95781.00
2018-10-07T17:18:10.562Z,95784.00
2018-10-07T17:20:40.950Z,95790.00
2018-10-07T17:23:11.353Z,95792.00
2018-10-07T17:25:41.706Z,95790.00
2018-10-07T17:28:11.994Z,95794.00
2018-10-07T17:30:42.347Z,95789.00
2018-10-07T17:33:12.617Z,95796.00
2018-10-07T17:35:43.087Z,95797.00
2018-10-07T17:38:13.992Z,95803.00
2018-10-07T17:40:44.723Z,95813.00
2018-10-07T17:43:15.006Z,95815.00
2018-10-07T17:45:45.289Z,95813.00
2018-10-07T17:48:15.647Z,95820.00
2018-10-07T17:50:45.858Z,95820.00
2018-10-07T17:53:16.610Z,95823.00
2018-10-07T17:55:46.895Z,95820.00
2018-10-07T17:58:17.165Z,95821.00
2018-10-07T18:00:47.480Z,95828.00
2018-10-07T18:03:17.841Z,95827.00
2018-10-07T18:05:48.070Z,95835.00
2018-10-07T18:08:18.431Z,95832.00
2018-10-07T18:10:49.035Z,95830.00
2018-10-07T18:13:19.366Z,95836.00
2018-10-07T18:15:50.535Z,95835.00
2018-10-07T18:18:21.225Z,95835.00
2018-10-07T18:20:51.610Z,95833.00
2018-10-07T18:23:21.951Z,95840.00
2018-10-07T18:25:52.338Z,95841.00
2018-10-07T18:28:22.619Z,95844.00
2018-10-07T18:30:52.969Z,95846.00
2018-10-07T18:33:23.248Z,95855.00
2018-10-07T18:35:53.557Z,95851.00
2018-10-07T18:38:23.911Z,95857.00
2018-10-07T18:40:54.246Z,95857.00
2018-10-07T18:43:24.726Z,95857.00
2018-10-07T18:45:55.074Z,95854.00
2018-10-07T18:48:25.754Z,95860.00
2018-10-07T18:50:56.092Z,95858.00
2018-10-07T18:53:26.674Z,95861.00
2018-10-07T18:55:57.186Z,95860.00
2018-10-07T18:58:27.480Z,95865.00
2018-10-07T19:00:57.975Z,95868.00
2018-10-07T19:03:28.463Z,95872.00
2018-10-07T19:05:59.119Z,95871.00
2018-10-07T19:08:29.611Z,95876.00
2018-10-07T19:10:59.899Z,95882.00
2018-10-07T19:13:30.323Z,95880.00
2018-10-07T19:16:00.706Z,95882.00
2018-10-07T19:18:31.018Z,95885.00
2018-10-07T19:21:01.504Z,95884.00
2018-10-07T19:23:32.057Z,95891.00
2018-10-07T19:26:04.035Z,95885.00
2018-10-07T19:28:34.942Z,95897.00
2018-10-07T19:31:05.278Z,95903.00
2018-10-07T19:33:35.514Z,95909.00
2018-10-07T19:36:07.126Z,95897.00
2018-10-07T19:38:38.594Z,95908.00
2018-10-07T19:41:09.389Z,95908.00
2018-10-07T19:43:40.850Z,95912.00
2018-10-07T19:46:11.175Z,95916.00
2018-10-07T19:48:41.676Z,95924.00
2018-10-07T19:51:12.135Z,95925.00
2018-10-07T19:53:42.482Z,95930.00
2018-10-07T19:56:13.099Z,95923.00
2018-10-07T19:58:44.763Z,95926.00
2018-10-07T20:01:15.256Z,95925.00
2018-10-07T20:03:45.615Z,95935.00
2018-10-07T20:06:15.970Z,95935.00
2018-10-07T20:08:46.322Z,95959.00
2018-10-07T20:11:16.615Z,95943.00
2018-10-07T20:13:46.921Z,95943.00
2018-10-07T20:16:17.594Z,95952.00
2018-10-07T20:18:47.948Z,95952.00
2018-10-07T20:21:18.310Z,95950.00
2018-10-07T20:23:48.731Z,95949.00
2018-10-07T20:26:19.581Z,95954.00
2018-10-07T20:28:49.967Z,95958.00
2018-10-07T20:31:21.992Z,95963.00
2018-10-07T20:33:53.945Z,95960.00
2018-10-07T20:36:27.128Z,95977.00
2018-10-07T20:38:58.537Z,95975.00
2018-10-07T20:41:29.476Z,95974.00
2018-10-07T20:44:00.834Z,95975.00
2018-10-07T20:46:31.310Z,95981.00
2018-10-07T20:49:02.344Z,95978.00
2018-10-07T20:51:32.877Z,95981.00
2018-10-07T20:54:03.518Z,95988.00
2018-10-07T20:56:34.478Z,95984.00
2018-10-07T20:59:04.803Z,95987.00
2018-10-07T21:01:36.638Z,95985.00
2018-10-07T21:04:08.514Z,95989.00
2018-10-07T21:06:39.876Z,95987.00
2018-10-07T21:09:12.828Z,95988.00
2018-10-07T21:11:43.140Z,95977.00
2018-10-07T21:14:13.722Z,95978.00
2018-10-07T21:16:44.285Z,95986.00
2018-10-07T21:19:15.167Z,95988.00
2018-10-07T21:21:45.741Z,95986.00
2018-10-07T21:24:16.338Z,95994.00
2018-10-07T21:26:46.534Z,95986.00
2018-10-07T21:29:16.957Z,95991.00
2018-10-07T21:31:47.293Z,95985.00
2018-10-07T21:34:17.687Z,95982.00
2018-10-07T21:36:49.790Z,95985.00
2018-10-07T21:39:20.054Z,95986.00
2018-10-07T21:41:50.539Z,95987.00
2018-10-07T21:44:24.107Z,95993.00
2018-10-07T21:46:56.031Z,95987.00
2018-10-07T21:49:26.882Z,95988.00
2018-10-07T21:52:00.965Z,95993.00
2018-10-07T21:54:32.361Z,95985.00
2018-10-07T21:57:02.795Z,95995.00
2018-10-07T21:59:33.599Z,95989.00
2018-10-07T22:02:04.378Z,95994.00
2018-10-07T22:04:34.844Z,95989.00
2018-10-07T22:07:05.526Z,95994.00
2018-10-07T22:09:35.847Z,95991.00
2018-10-07T22:12:07.206Z,95993.00
2018-10-07T22:14:37.941Z,95992.00
2018-10-07T22:17:08.337Z,95999.00
2018-10-07T22:19:38.785Z,95997.00
2018-10-07T22:22:10.326Z,95996.00
2018-10-07T22:24:41.114Z,95997.00
2018-10-07T22:27:11.429Z,96003.00
2018-10-07T22:29:41.886Z,95989.00
2018-10-07T22:32:12.265Z,95990.00
2018-10-07T22:34:43.292Z,95992.00
2018-10-07T22:37:15.722Z,95989.00
2018-10-07T22:39:46.300Z,95990.00
2018-10-07T22:42:16.827Z,95990.00
2018-10-07T22:44:47.219Z,95989.00
2018-10-07T22:47:17.826Z,95996.00
2018-10-07T22:49:48.232Z,95994.00
2018-10-07T22:52:18.519Z,95995.00
2018-10-07T22:54:48.871Z,95994.00
2018-10-07T22:57:19.176Z,95992.00
2018-10-07T22:59:50.551Z,95985.00
2018-10-07T23:02:20.888Z,95987.00
2018-10-07T23:04:51.389Z,95989.00
2018-10-07T23:07:22.088Z,95987.00
2018-10-07T23:09:52.465Z,95982.00
2018-10-07T23:12:23.419Z,95984.00
2018-10-07T23:14:53.904Z,95983.00
2018-10-07T23:17:26.679Z,95984.00
2018-10-07T23:19:57.060Z,95980.00
2018-10-07T23:22:27.703Z,95993.00
2018-10-07T23:24:58.109Z,95993.00
2018-10-07T23:27:28.383Z,95990.00
2018-10-07T23:29:58.751Z,95999.00
2018-10-07T23:32:29.159Z,96001.00
2018-10-07T23:34:59.664Z,96002.00
2018-10-07T23:37:30.149Z,96000.00
2018-10-07T23:40:00.470Z,95994.00
2018-10-07T23:42:30.843Z,96001.00
2018-10-07T23:45:01.147Z,96001.00
2018-10-07T23:47:31.462Z,96004.00
2018-10-07T23:50:01.849Z,95995.00
2018-10-07T23:52:32.326Z,96005.00
2018-10-07T23:55:02.657Z,95998.00
2018-10-07T23:57:33.083Z,95991.00
